sensor_id;sensor_type;location;lat;lon;timestamp;temperature;humidity
9151;DHT22;4610;50.006;7.490;2022-09-09T00:00:55;14.10;99.90
9151;DHT22;4610;50.006;7.490;2022-09-09T00:03:25;14.10;99.90
9151;DHT22;4610;50.006;7.490;2022-09-09T00:05:58;14.10;99.90
9151;DHT22;4610;50.006;7.490;2022-09-09T00:08:33;14.10;99.90
9151;DHT22;4610;50.006;7.490;2022-09-09T00:11:04;14.10;99.90
9151;DHT22;4610;50.006;7.490;2022-09-09T00:13:37;14.10;99.90
9151;DHT22;4610;50.006;7.490;2022-09-09T00:16:10;14.10;99.90
9151;DHT22;4610;50.006;7.490;2022-09-09T00:18:52;14.10;99.90
9151;DHT22;4610;50.006;7.490;2022-09-09T00:21:26;14.10;99.90
9151;DHT22;4610;50.006;7.490;2022-09-09T00:23:58;14.20;99.90
9151;DHT22;4610;50.006;7.490;2022-09-09T00:26:31;14.20;99.90
9151;DHT22;4610;50.006;7.490;2022-09-09T00:29:05;14.30;99.90
9151;DHT22;4610;50.006;7.490;2022-09-09T00:31:36;14.30;99.90
9151;DHT22;4610;50.006;7.490;2022-09-09T00:34:08;14.40;99.90
9151;DHT22;4610;50.006;7.490;2022-09-09T00:36:36;14.40;99.90
9151;DHT22;4610;50.006;7.490;2022-09-09T00:39:04;14.40;99.90
9151;DHT22;4610;50.006;7.490;2022-09-09T00:41:43;14.30;99.90
9151;DHT22;4610;50.006;7.490;2022-09-09T00:44:23;14.30;99.90
9151;DHT22;4610;50.006;7.490;2022-09-09T00:47:03;14.30;99.90
9151;DHT22;4610;50.006;7.490;2022-09-09T00:49:39;14.20;99.90
9151;DHT22;4610;50.006;7.490;2022-09-09T00:52:20;14.20;99.90
9151;DHT22;4610;50.006;7.490;2022-09-09T00:54:56;14.10;99.90
9151;DHT22;4610;50.006;7.490;2022-09-09T00:57:29;14.10;99.90
9151;DHT22;4610;50.006;7.490;2022-09-09T01:00:14;14.10;99.90
9151;DHT22;4610;50.006;7.490;2022-09-09T01:02:49;14.10;99.90
9151;DHT22;4610;50.006;7.490;2022-09-09T01:05:22;14.10;99.90
9151;DHT22;4610;50.006;7.490;2022-09-09T01:07:53;14.00;99.90
9151;DHT22;4610;50.006;7.490;2022-09-09T01:10:26;14.00;99.90
9151;DHT22;4610;50.006;7.490;2022-09-09T01:12:58;13.90;99.90
9151;DHT22;4610;50.006;7.490;2022-09-09T01:15:30;13.80;99.90
9151;DHT22;4610;50.006;7.490;2022-09-09T01:18:02;13.80;99.90
9151;DHT22;4610;50.006;7.490;2022-09-09T01:20:37;13.80;99.90
9151;DHT22;4610;50.006;7.490;2022-09-09T01:26:15;13.80;99.90
9151;DHT22;4610;50.006;7.490;2022-09-09T01:28:44;13.90;99.90
9151;DHT22;4610;50.006;7.490;2022-09-09T01:31:15;13.90;99.90
9151;DHT22;4610;50.006;7.490;2022-09-09T01:33:43;13.90;99.90
9151;DHT22;4610;50.006;7.490;2022-09-09T01:36:13;13.80;99.90
9151;DHT22;4610;50.006;7.490;2022-09-09T01:38:41;13.80;99.90
9151;DHT22;4610;50.006;7.490;2022-09-09T01:41:08;13.70;99.90
9151;DHT22;4610;50.006;7.490;2022-09-09T01:43:36;13.50;99.90
9151;DHT22;4610;50.006;7.490;2022-09-09T01:46:04;13.40;99.90
9151;DHT22;4610;50.006;7.490;2022-09-09T01:48:31;13.40;99.90
9151;DHT22;4610;50.006;7.490;2022-09-09T01:50:58;13.30;99.90
9151;DHT22;4610;50.006;7.490;2022-09-09T01:53:25;13.40;99.90
9151;DHT22;4610;50.006;7.490;2022-09-09T01:55:58;13.40;99.90
9151;DHT22;4610;50.006;7.490;2022-09-09T01:58:34;13.40;99.90
9151;DHT22;4610;50.006;7.490;2022-09-09T02:01:08;13.40;99.90
9151;DHT22;4610;50.006;7.490;2022-09-09T02:03:42;13.40;99.90
9151;DHT22;4610;50.006;7.490;2022-09-09T02:06:19;13.50;99.90
9151;DHT22;4610;50.006;7.490;2022-09-09T02:08:49;13.50;99.90
9151;DHT22;4610;50.006;7.490;2022-09-09T02:11:18;13.60;99.90
9151;DHT22;4610;50.006;7.490;2022-09-09T02:13:47;13.60;99.90
9151;DHT22;4610;50.006;7.490;2022-09-09T02:16:20;13.60;99.90
9151;DHT22;4610;50.006;7.490;2022-09-09T02:18:50;13.70;99.90
9151;DHT22;4610;50.006;7.490;2022-09-09T02:21:18;13.70;99.90
9151;DHT22;4610;50.006;7.490;2022-09-09T02:23:47;13.70;99.90
9151;DHT22;4610;50.006;7.490;2022-09-09T02:26:17;13.80;99.90
9151;DHT22;4610;50.006;7.490;2022-09-09T02:28:48;13.80;99.90
9151;DHT22;4610;50.006;7.490;2022-09-09T02:31:18;13.90;99.90
9151;DHT22;4610;50.006;7.490;2022-09-09T02:33:52;13.90;99.90
9151;DHT22;4610;50.006;7.490;2022-09-09T02:36:22;13.90;99.90
9151;DHT22;4610;50.006;7.490;2022-09-09T02:38:50;13.80;99.90
9151;DHT22;4610;50.006;7.490;2022-09-09T02:41:20;13.80;99.90
9151;DHT22;4610;50.006;7.490;2022-09-09T02:43:48;13.90;99.90
9151;DHT22;4610;50.006;7.490;2022-09-09T02:46:27;13.90;99.90
9151;DHT22;4610;50.006;7.490;2022-09-09T02:49:00;13.90;99.90
9151;DHT22;4610;50.006;7.490;2022-09-09T02:51:35;13.90;99.90
9151;DHT22;4610;50.006;7.490;2022-09-09T02:54:10;13.90;99.90
9151;DHT22;4610;50.006;7.490;2022-09-09T02:56:45;13.90;99.90
9151;DHT22;4610;50.006;7.490;2022-09-09T02:59:15;13.80;99.90
9151;DHT22;4610;50.006;7.490;2022-09-09T03:01:43;13.80;99.90
9151;DHT22;4610;50.006;7.490;2022-09-09T03:04:10;13.80;99.90
9151;DHT22;4610;50.006;7.490;2022-09-09T03:06:37;13.80;99.90
9151;DHT22;4610;50.006;7.490;2022-09-09T03:09:04;13.80;99.90
9151;DHT22;4610;50.006;7.490;2022-09-09T03:11:31;13.80;99.90
9151;DHT22;4610;50.006;7.490;2022-09-09T03:13:57;13.80;99.90
9151;DHT22;4610;50.006;7.490;2022-09-09T03:16:24;13.80;99.90
9151;DHT22;4610;50.006;7.490;2022-09-09T03:18:53;13.80;99.90
9151;DHT22;4610;50.006;7.490;2022-09-09T03:21:19;13.80;99.90
9151;DHT22;4610;50.006;7.490;2022-09-09T03:23:46;13.80;99.90
9151;DHT22;4610;50.006;7.490;2022-09-09T03:26:13;13.80;99.90
9151;DHT22;4610;50.006;7.490;2022-09-09T03:28:40;13.80;99.90
9151;DHT22;4610;50.006;7.490;2022-09-09T03:31:07;13.80;99.90
9151;DHT22;4610;50.006;7.490;2022-09-09T03:33:35;13.80;99.90
9151;DHT22;4610;50.006;7.490;2022-09-09T03:36:04;13.90;99.90
9151;DHT22;4610;50.006;7.490;2022-09-09T03:38:31;13.80;99.90
9151;DHT22;4610;50.006;7.490;2022-09-09T03:40:59;13.80;99.90
9151;DHT22;4610;50.006;7.490;2022-09-09T03:43:28;13.90;99.90
9151;DHT22;4610;50.006;7.490;2022-09-09T03:45:55;13.80;99.90
9151;DHT22;4610;50.006;7.490;2022-09-09T03:48:22;13.80;99.90
9151;DHT22;4610;50.006;7.490;2022-09-09T03:50:51;13.70;99.90
9151;DHT22;4610;50.006;7.490;2022-09-09T03:53:21;13.80;99.90
9151;DHT22;4610;50.006;7.490;2022-09-09T03:55:51;13.80;99.90
9151;DHT22;4610;50.006;7.490;2022-09-09T03:58:21;13.80;99.90
9151;DHT22;4610;50.006;7.490;2022-09-09T04:01:00;13.80;99.90
9151;DHT22;4610;50.006;7.490;2022-09-09T04:03:27;13.90;99.90
9151;DHT22;4610;50.006;7.490;2022-09-09T04:05:56;14.00;99.90
9151;DHT22;4610;50.006;7.490;2022-09-09T04:08:25;14.10;99.90
9151;DHT22;4610;50.006;7.490;2022-09-09T04:10:53;14.20;99.90
9151;DHT22;4610;50.006;7.490;2022-09-09T04:13:22;14.30;99.90
9151;DHT22;4610;50.006;7.490;2022-09-09T04:15:51;14.30;99.90
9151;DHT22;4610;50.006;7.490;2022-09-09T04:18:18;14.30;99.90
9151;DHT22;4610;50.006;7.490;2022-09-09T04:20:46;14.40;99.90
9151;DHT22;4610;50.006;7.490;2022-09-09T04:23:13;14.40;99.90
9151;DHT22;4610;50.006;7.490;2022-09-09T04:25:44;14.30;99.90
9151;DHT22;4610;50.006;7.490;2022-09-09T04:28:12;14.40;99.90
9151;DHT22;4610;50.006;7.490;2022-09-09T04:30:39;14.40;99.90
9151;DHT22;4610;50.006;7.490;2022-09-09T04:33:06;14.40;99.90
9151;DHT22;4610;50.006;7.490;2022-09-09T04:35:33;14.40;99.90
9151;DHT22;4610;50.006;7.490;2022-09-09T04:38:00;14.40;99.90
9151;DHT22;4610;50.006;7.490;2022-09-09T04:40:28;14.40;99.90
9151;DHT22;4610;50.006;7.490;2022-09-09T04:42:57;14.40;99.90
9151;DHT22;4610;50.006;7.490;2022-09-09T04:45:24;14.40;99.90
9151;DHT22;4610;50.006;7.490;2022-09-09T04:47:51;14.30;99.90
9151;DHT22;4610;50.006;7.490;2022-09-09T04:50:18;14.30;99.90
9151;DHT22;4610;50.006;7.490;2022-09-09T04:52:45;14.20;99.90
9151;DHT22;4610;50.006;7.490;2022-09-09T04:55:12;14.20;99.90
9151;DHT22;4610;50.006;7.490;2022-09-09T04:57:39;14.20;99.90
9151;DHT22;4610;50.006;7.490;2022-09-09T05:00:08;14.20;99.90
9151;DHT22;4610;50.006;7.490;2022-09-09T05:02:37;14.20;99.90
9151;DHT22;4610;50.006;7.490;2022-09-09T05:05:04;14.20;99.90
9151;DHT22;4610;50.006;7.490;2022-09-09T05:07:31;14.20;99.90
9151;DHT22;4610;50.006;7.490;2022-09-09T05:09:57;14.20;99.90
9151;DHT22;4610;50.006;7.490;2022-09-09T05:12:25;14.10;99.90
9151;DHT22;4610;50.006;7.490;2022-09-09T05:14:52;14.10;99.90
9151;DHT22;4610;50.006;7.490;2022-09-09T05:17:20;14.40;99.90
9151;DHT22;4610;50.006;7.490;2022-09-09T05:19:47;14.50;99.90
9151;DHT22;4610;50.006;7.490;2022-09-09T05:22:18;14.50;99.90
9151;DHT22;4610;50.006;7.490;2022-09-09T05:24:46;14.60;99.90
9151;DHT22;4610;50.006;7.490;2022-09-09T05:27:16;14.70;99.90
9151;DHT22;4610;50.006;7.490;2022-09-09T05:29:44;14.70;99.90
9151;DHT22;4610;50.006;7.490;2022-09-09T05:32:11;14.90;99.90
9151;DHT22;4610;50.006;7.490;2022-09-09T05:34:40;15.00;99.90
9151;DHT22;4610;50.006;7.490;2022-09-09T05:37:07;15.10;99.90
9151;DHT22;4610;50.006;7.490;2022-09-09T05:39:34;15.40;99.90
9151;DHT22;4610;50.006;7.490;2022-09-09T05:42:02;15.60;99.90
9151;DHT22;4610;50.006;7.490;2022-09-09T05:44:30;16.10;99.90
9151;DHT22;4610;50.006;7.490;2022-09-09T05:46:56;16.70;99.90
9151;DHT22;4610;50.006;7.490;2022-09-09T05:49:24;17.10;99.90
9151;DHT22;4610;50.006;7.490;2022-09-09T05:51:52;17.10;99.90
9151;DHT22;4610;50.006;7.490;2022-09-09T05:54:19;17.00;99.90
9151;DHT22;4610;50.006;7.490;2022-09-09T05:56:46;17.50;99.90
9151;DHT22;4610;50.006;7.490;2022-09-09T05:59:15;18.40;99.90
9151;DHT22;4610;50.006;7.490;2022-09-09T06:01:41;19.30;99.90
9151;DHT22;4610;50.006;7.490;2022-09-09T06:04:08;19.90;99.90
9151;DHT22;4610;50.006;7.490;2022-09-09T06:06:36;20.00;99.90
9151;DHT22;4610;50.006;7.490;2022-09-09T06:09:08;19.70;99.90
9151;DHT22;4610;50.006;7.490;2022-09-09T06:11:36;19.30;99.90
9151;DHT22;4610;50.006;7.490;2022-09-09T06:14:04;19.10;99.90
9151;DHT22;4610;50.006;7.490;2022-09-09T06:16:31;18.90;99.90
9151;DHT22;4610;50.006;7.490;2022-09-09T06:18:59;18.60;99.90
9151;DHT22;4610;50.006;7.490;2022-09-09T06:21:27;18.50;99.90
9151;DHT22;4610;50.006;7.490;2022-09-09T06:23:55;18.50;99.90
9151;DHT22;4610;50.006;7.490;2022-09-09T06:26:25;18.90;99.90
9151;DHT22;4610;50.006;7.490;2022-09-09T06:28:53;19.10;99.90
9151;DHT22;4610;50.006;7.490;2022-09-09T06:31:22;19.20;99.90
9151;DHT22;4610;50.006;7.490;2022-09-09T06:33:49;20.10;99.90
9151;DHT22;4610;50.006;7.490;2022-09-09T06:36:19;21.20;99.90
9151;DHT22;4610;50.006;7.490;2022-09-09T06:38:46;21.90;99.90
9151;DHT22;4610;50.006;7.490;2022-09-09T06:41:15;22.20;99.90
9151;DHT22;4610;50.006;7.490;2022-09-09T06:43:43;22.70;99.90
9151;DHT22;4610;50.006;7.490;2022-09-09T06:46:12;23.00;99.90
9151;DHT22;4610;50.006;7.490;2022-09-09T06:48:40;23.50;99.90
9151;DHT22;4610;50.006;7.490;2022-09-09T06:51:09;24.10;99.90
9151;DHT22;4610;50.006;7.490;2022-09-09T06:53:37;24.10;99.90
9151;DHT22;4610;50.006;7.490;2022-09-09T06:56:18;24.40;99.90
9151;DHT22;4610;50.006;7.490;2022-09-09T06:58:47;24.40;99.90
9151;DHT22;4610;50.006;7.490;2022-09-09T07:01:16;24.50;99.90
9151;DHT22;4610;50.006;7.490;2022-09-09T07:03:46;23.90;99.90
9151;DHT22;4610;50.006;7.490;2022-09-09T07:06:14;23.70;99.90
9151;DHT22;4610;50.006;7.490;2022-09-09T07:08:42;23.70;99.90
9151;DHT22;4610;50.006;7.490;2022-09-09T07:11:10;23.40;99.90
9151;DHT22;4610;50.006;7.490;2022-09-09T07:13:37;23.80;99.90
9151;DHT22;4610;50.006;7.490;2022-09-09T07:16:06;24.10;99.90
9151;DHT22;4610;50.006;7.490;2022-09-09T07:18:33;24.10;99.90
9151;DHT22;4610;50.006;7.490;2022-09-09T07:21:01;24.10;99.90
9151;DHT22;4610;50.006;7.490;2022-09-09T07:23:28;23.50;99.90
9151;DHT22;4610;50.006;7.490;2022-09-09T07:25:55;22.80;99.90
9151;DHT22;4610;50.006;7.490;2022-09-09T07:28:23;22.00;99.90
9151;DHT22;4610;50.006;7.490;2022-09-09T07:30:54;21.20;99.90
9151;DHT22;4610;50.006;7.490;2022-09-09T07:33:22;20.50;99.90
9151;DHT22;4610;50.006;7.490;2022-09-09T07:35:50;20.00;99.90
9151;DHT22;4610;50.006;7.490;2022-09-09T07:38:17;19.60;99.90
9151;DHT22;4610;50.006;7.490;2022-09-09T07:40:44;19.60;99.90
9151;DHT22;4610;50.006;7.490;2022-09-09T07:43:11;20.70;99.90
9151;DHT22;4610;50.006;7.490;2022-09-09T07:45:38;21.80;99.90
9151;DHT22;4610;50.006;7.490;2022-09-09T07:48:05;22.40;99.90
9151;DHT22;4610;50.006;7.490;2022-09-09T07:50:34;22.40;99.90
9151;DHT22;4610;50.006;7.490;2022-09-09T07:53:00;22.40;99.90
9151;DHT22;4610;50.006;7.490;2022-09-09T07:55:28;22.00;99.90
9151;DHT22;4610;50.006;7.490;2022-09-09T07:57:55;22.00;99.90
9151;DHT22;4610;50.006;7.490;2022-09-09T08:00:22;22.10;99.90
9151;DHT22;4610;50.006;7.490;2022-09-09T08:02:49;22.00;99.90
9151;DHT22;4610;50.006;7.490;2022-09-09T08:05:16;21.70;99.90
9151;DHT22;4610;50.006;7.490;2022-09-09T08:07:44;21.90;99.90
9151;DHT22;4610;50.006;7.490;2022-09-09T08:10:11;21.70;99.90
9151;DHT22;4610;50.006;7.490;2022-09-09T08:12:40;21.40;99.90
9151;DHT22;4610;50.006;7.490;2022-09-09T08:15:07;21.30;99.90
9151;DHT22;4610;50.006;7.490;2022-09-09T08:17:34;21.50;99.90
9151;DHT22;4610;50.006;7.490;2022-09-09T08:20:00;21.20;99.90
9151;DHT22;4610;50.006;7.490;2022-09-09T08:22:31;20.80;99.90
9151;DHT22;4610;50.006;7.490;2022-09-09T08:24:59;20.50;99.90
9151;DHT22;4610;50.006;7.490;2022-09-09T08:27:26;20.80;99.90
9151;DHT22;4610;50.006;7.490;2022-09-09T08:29:52;21.80;99.90
9151;DHT22;4610;50.006;7.490;2022-09-09T08:32:19;22.90;99.90
9151;DHT22;4610;50.006;7.490;2022-09-09T08:34:46;24.10;99.90
9151;DHT22;4610;50.006;7.490;2022-09-09T08:37:13;24.70;99.90
9151;DHT22;4610;50.006;7.490;2022-09-09T08:39:40;24.60;99.90
9151;DHT22;4610;50.006;7.490;2022-09-09T08:42:22;24.80;99.90
9151;DHT22;4610;50.006;7.490;2022-09-09T08:45:09;25.30;99.90
9151;DHT22;4610;50.006;7.490;2022-09-09T08:47:46;24.90;99.90
9151;DHT22;4610;50.006;7.490;2022-09-09T08:50:19;24.20;99.90
9151;DHT22;4610;50.006;7.490;2022-09-09T08:52:54;23.30;99.90
9151;DHT22;4610;50.006;7.490;2022-09-09T08:55:27;22.60;99.90
9151;DHT22;4610;50.006;7.490;2022-09-09T08:58:09;22.10;99.90
9151;DHT22;4610;50.006;7.490;2022-09-09T09:00:44;21.60;99.90
9151;DHT22;4610;50.006;7.490;2022-09-09T09:03:19;21.20;99.90
9151;DHT22;4610;50.006;7.490;2022-09-09T09:05:56;20.80;99.90
9151;DHT22;4610;50.006;7.490;2022-09-09T09:08:28;20.60;99.90
9151;DHT22;4610;50.006;7.490;2022-09-09T09:10:58;20.40;99.90
9151;DHT22;4610;50.006;7.490;2022-09-09T09:13:35;20.30;99.90
9151;DHT22;4610;50.006;7.490;2022-09-09T09:16:13;20.30;99.90
9151;DHT22;4610;50.006;7.490;2022-09-09T09:18:41;20.40;99.90
9151;DHT22;4610;50.006;7.490;2022-09-09T09:21:12;20.50;99.90
9151;DHT22;4610;50.006;7.490;2022-09-09T09:23:44;20.40;99.90
9151;DHT22;4610;50.006;7.490;2022-09-09T09:26:12;20.10;99.90
9151;DHT22;4610;50.006;7.490;2022-09-09T09:28:40;19.90;99.90
9151;DHT22;4610;50.006;7.490;2022-09-09T09:31:09;19.90;99.90
9151;DHT22;4610;50.006;7.490;2022-09-09T09:33:45;19.00;99.90
9151;DHT22;4610;50.006;7.490;2022-09-09T09:36:13;19.90;99.90
9151;DHT22;4610;50.006;7.490;2022-09-09T09:38:52;20.00;99.90
9151;DHT22;4610;50.006;7.490;2022-09-09T09:41:29;20.40;99.90
9151;DHT22;4610;50.006;7.490;2022-09-09T09:43:58;21.10;99.90
9151;DHT22;4610;50.006;7.490;2022-09-09T09:46:27;22.20;99.90
9151;DHT22;4610;50.006;7.490;2022-09-09T09:48:58;23.20;99.90
9151;DHT22;4610;50.006;7.490;2022-09-09T09:51:26;23.90;99.90
9151;DHT22;4610;50.006;7.490;2022-09-09T09:54:06;24.30;99.90
9151;DHT22;4610;50.006;7.490;2022-09-09T09:56:35;23.70;99.90
9151;DHT22;4610;50.006;7.490;2022-09-09T09:59:03;23.30;99.90
9151;DHT22;4610;50.006;7.490;2022-09-09T10:01:32;23.00;99.90
9151;DHT22;4610;50.006;7.490;2022-09-09T10:04:01;22.60;99.90
9151;DHT22;4610;50.006;7.490;2022-09-09T10:06:32;22.20;99.90
9151;DHT22;4610;50.006;7.490;2022-09-09T10:09:01;22.10;99.90
9151;DHT22;4610;50.006;7.490;2022-09-09T10:11:43;22.20;99.90
9151;DHT22;4610;50.006;7.490;2022-09-09T10:14:19;23.00;99.90
9151;DHT22;4610;50.006;7.490;2022-09-09T10:16:56;23.70;99.90
9151;DHT22;4610;50.006;7.490;2022-09-09T10:19:30;23.60;99.90
9151;DHT22;4610;50.006;7.490;2022-09-09T10:22:04;23.00;99.90
9151;DHT22;4610;50.006;7.490;2022-09-09T10:25:01;22.40;99.90
9151;DHT22;4610;50.006;7.490;2022-09-09T10:27:40;22.10;99.90
9151;DHT22;4610;50.006;7.490;2022-09-09T10:30:14;22.30;99.90
9151;DHT22;4610;50.006;7.490;2022-09-09T10:32:48;22.60;99.90
9151;DHT22;4610;50.006;7.490;2022-09-09T10:35:27;22.40;99.90
9151;DHT22;4610;50.006;7.490;2022-09-09T10:38:12;22.20;99.90
9151;DHT22;4610;50.006;7.490;2022-09-09T10:40:46;22.30;99.90
9151;DHT22;4610;50.006;7.490;2022-09-09T10:43:26;22.50;99.90
9151;DHT22;4610;50.006;7.490;2022-09-09T10:46:05;22.90;99.90
9151;DHT22;4610;50.006;7.490;2022-09-09T10:48:45;23.00;99.90
9151;DHT22;4610;50.006;7.490;2022-09-09T10:51:33;23.30;99.90
9151;DHT22;4610;50.006;7.490;2022-09-09T10:54:22;23.30;99.90
9151;DHT22;4610;50.006;7.490;2022-09-09T10:56:54;23.10;99.90
9151;DHT22;4610;50.006;7.490;2022-09-09T10:59:25;22.80;99.90
9151;DHT22;4610;50.006;7.490;2022-09-09T11:01:57;22.50;99.90
9151;DHT22;4610;50.006;7.490;2022-09-09T11:04:28;22.40;99.90
9151;DHT22;4610;50.006;7.490;2022-09-09T11:07:02;22.50;99.90
9151;DHT22;4610;50.006;7.490;2022-09-09T11:09:36;22.50;99.90
9151;DHT22;4610;50.006;7.490;2022-09-09T11:12:05;22.70;99.90
9151;DHT22;4610;50.006;7.490;2022-09-09T11:14:38;22.70;99.90
9151;DHT22;4610;50.006;7.490;2022-09-09T11:17:12;22.50;99.90
9151;DHT22;4610;50.006;7.490;2022-09-09T11:19:41;22.20;99.90
9151;DHT22;4610;50.006;7.490;2022-09-09T11:22:17;21.90;99.90
9151;DHT22;4610;50.006;7.490;2022-09-09T11:24:49;21.80;99.90
9151;DHT22;4610;50.006;7.490;2022-09-09T11:27:20;21.50;99.90
9151;DHT22;4610;50.006;7.490;2022-09-09T11:30:05;21.20;99.90
9151;DHT22;4610;50.006;7.490;2022-09-09T11:35:44;20.70;99.90
9151;DHT22;4610;50.006;7.490;2022-09-09T11:38:19;20.90;99.90
9151;DHT22;4610;50.006;7.490;2022-09-09T11:40:55;21.00;99.90
9151;DHT22;4610;50.006;7.490;2022-09-09T11:43:28;21.30;99.90
9151;DHT22;4610;50.006;7.490;2022-09-09T11:45:58;21.50;99.90
9151;DHT22;4610;50.006;7.490;2022-09-09T11:48:32;21.90;99.90
9151;DHT22;4610;50.006;7.490;2022-09-09T11:51:05;21.80;99.90
9151;DHT22;4610;50.006;7.490;2022-09-09T11:53:34;21.60;99.90
9151;DHT22;4610;50.006;7.490;2022-09-09T11:56:06;21.50;99.90
9151;DHT22;4610;50.006;7.490;2022-09-09T11:58:37;21.60;99.90
9151;DHT22;4610;50.006;7.490;2022-09-09T12:01:27;21.60;99.90
9151;DHT22;4610;50.006;7.490;2022-09-09T12:04:05;21.60;99.90
9151;DHT22;4610;50.006;7.490;2022-09-09T12:06:41;21.80;99.90
9151;DHT22;4610;50.006;7.490;2022-09-09T12:09:17;21.90;99.90
9151;DHT22;4610;50.006;7.490;2022-09-09T12:11:45;21.90;99.90
9151;DHT22;4610;50.006;7.490;2022-09-09T12:14:20;21.90;99.90
9151;DHT22;4610;50.006;7.490;2022-09-09T12:16:48;21.90;99.90
9151;DHT22;4610;50.006;7.490;2022-09-09T12:19:19;21.80;99.90
9151;DHT22;4610;50.006;7.490;2022-09-09T12:21:51;21.90;99.90
9151;DHT22;4610;50.006;7.490;2022-09-09T12:24:26;21.90;99.90
9151;DHT22;4610;50.006;7.490;2022-09-09T12:26:58;22.00;99.90
9151;DHT22;4610;50.006;7.490;2022-09-09T12:29:36;21.90;99.90
9151;DHT22;4610;50.006;7.490;2022-09-09T12:32:07;21.80;99.90
9151;DHT22;4610;50.006;7.490;2022-09-09T12:34:39;21.70;99.90
9151;DHT22;4610;50.006;7.490;2022-09-09T12:37:14;21.60;99.90
9151;DHT22;4610;50.006;7.490;2022-09-09T12:39:45;21.50;99.90
9151;DHT22;4610;50.006;7.490;2022-09-09T12:42:18;21.50;99.90
9151;DHT22;4610;50.006;7.490;2022-09-09T12:44:56;21.60;99.90
9151;DHT22;4610;50.006;7.490;2022-09-09T12:47:26;21.60;99.90
9151;DHT22;4610;50.006;7.490;2022-09-09T12:49:56;21.60;99.90
9151;DHT22;4610;50.006;7.490;2022-09-09T12:52:27;21.40;99.90
9151;DHT22;4610;50.006;7.490;2022-09-09T12:54:55;21.20;99.90
9151;DHT22;4610;50.006;7.490;2022-09-09T12:57:23;21.00;99.90
9151;DHT22;4610;50.006;7.490;2022-09-09T12:59:51;20.60;99.90
9151;DHT22;4610;50.006;7.490;2022-09-09T13:02:21;20.40;99.90
9151;DHT22;4610;50.006;7.490;2022-09-09T13:04:48;20.10;99.90
9151;DHT22;4610;50.006;7.490;2022-09-09T13:07:17;19.70;99.90
9151;DHT22;4610;50.006;7.490;2022-09-09T13:09:46;19.10;99.90
9151;DHT22;4610;50.006;7.490;2022-09-09T13:12:15;18.80;99.90
9151;DHT22;4610;50.006;7.490;2022-09-09T13:14:45;18.60;99.90
9151;DHT22;4610;50.006;7.490;2022-09-09T13:17:19;18.50;99.90
9151;DHT22;4610;50.006;7.490;2022-09-09T13:19:47;18.50;99.90
9151;DHT22;4610;50.006;7.490;2022-09-09T13:22:22;18.80;99.90
9151;DHT22;4610;50.006;7.490;2022-09-09T13:25:03;19.00;99.90
9151;DHT22;4610;50.006;7.490;2022-09-09T13:27:32;19.30;99.90
9151;DHT22;4610;50.006;7.490;2022-09-09T13:30:00;19.40;99.90
9151;DHT22;4610;50.006;7.490;2022-09-09T13:32:28;19.60;99.90
9151;DHT22;4610;50.006;7.490;2022-09-09T13:34:55;19.80;99.90
9151;DHT22;4610;50.006;7.490;2022-09-09T13:37:30;20.00;99.90
9151;DHT22;4610;50.006;7.490;2022-09-09T13:39:58;20.00;99.90
9151;DHT22;4610;50.006;7.490;2022-09-09T13:42:27;20.00;99.90
9151;DHT22;4610;50.006;7.490;2022-09-09T13:44:55;19.90;99.90
9151;DHT22;4610;50.006;7.490;2022-09-09T13:47:29;20.00;99.90
9151;DHT22;4610;50.006;7.490;2022-09-09T13:49:56;19.90;99.90
9151;DHT22;4610;50.006;7.490;2022-09-09T13:52:26;20.00;99.90
9151;DHT22;4610;50.006;7.490;2022-09-09T13:54:56;20.00;99.90
9151;DHT22;4610;50.006;7.490;2022-09-09T13:57:24;19.90;99.90
9151;DHT22;4610;50.006;7.490;2022-09-09T13:59:53;18.90;99.90
9151;DHT22;4610;50.006;7.490;2022-09-09T14:02:21;19.90;99.90
9151;DHT22;4610;50.006;7.490;2022-09-09T14:04:48;19.80;99.90
9151;DHT22;4610;50.006;7.490;2022-09-09T14:07:17;19.70;99.90
9151;DHT22;4610;50.006;7.490;2022-09-09T14:09:46;19.70;99.90
9151;DHT22;4610;50.006;7.490;2022-09-09T14:12:15;19.60;99.90
9151;DHT22;4610;50.006;7.490;2022-09-09T14:14:43;19.70;99.90
9151;DHT22;4610;50.006;7.490;2022-09-09T14:17:10;19.70;99.90
9151;DHT22;4610;50.006;7.490;2022-09-09T14:19:37;19.70;99.90
9151;DHT22;4610;50.006;7.490;2022-09-09T14:22:03;19.60;99.90
9151;DHT22;4610;50.006;7.490;2022-09-09T14:24:30;19.50;99.90
9151;DHT22;4610;50.006;7.490;2022-09-09T14:26:58;19.40;99.90
9151;DHT22;4610;50.006;7.490;2022-09-09T14:29:25;19.50;99.90
9151;DHT22;4610;50.006;7.490;2022-09-09T14:31:52;19.40;99.90
9151;DHT22;4610;50.006;7.490;2022-09-09T14:34:18;19.40;99.90
9151;DHT22;4610;50.006;7.490;2022-09-09T14:36:45;19.20;99.90
9151;DHT22;4610;50.006;7.490;2022-09-09T14:39:12;19.00;99.90
9151;DHT22;4610;50.006;7.490;2022-09-09T14:41:39;18.80;99.90
9151;DHT22;4610;50.006;7.490;2022-09-09T14:44:07;18.80;99.90
9151;DHT22;4610;50.006;7.490;2022-09-09T14:46:34;18.60;99.90
9151;DHT22;4610;50.006;7.490;2022-09-09T14:49:00;18.60;99.90
9151;DHT22;4610;50.006;7.490;2022-09-09T14:51:27;18.50;99.90
9151;DHT22;4610;50.006;7.490;2022-09-09T14:53:55;18.50;99.90
9151;DHT22;4610;50.006;7.490;2022-09-09T14:56:24;18.40;99.90
9151;DHT22;4610;50.006;7.490;2022-09-09T14:58:53;19.70;99.90
9151;DHT22;4610;50.006;7.490;2022-09-09T15:01:22;18.20;99.90
9151;DHT22;4610;50.006;7.490;2022-09-09T15:03:50;18.10;99.90
9151;DHT22;4610;50.006;7.490;2022-09-09T15:06:18;17.70;99.90
9151;DHT22;4610;50.006;7.490;2022-09-09T15:08:46;17.10;99.90
9151;DHT22;4610;50.006;7.490;2022-09-09T15:11:14;16.90;99.90
9151;DHT22;4610;50.006;7.490;2022-09-09T15:13:42;16.90;99.90
9151;DHT22;4610;50.006;7.490;2022-09-09T15:16:10;16.90;99.90
9151;DHT22;4610;50.006;7.490;2022-09-09T15:18:39;17.00;99.90
9151;DHT22;4610;50.006;7.490;2022-09-09T15:21:08;16.80;99.90
9151;DHT22;4610;50.006;7.490;2022-09-09T15:23:36;16.60;99.90
9151;DHT22;4610;50.006;7.490;2022-09-09T15:26:03;16.50;99.90
9151;DHT22;4610;50.006;7.490;2022-09-09T15:28:31;16.50;99.90
9151;DHT22;4610;50.006;7.490;2022-09-09T15:30:59;16.40;99.90
9151;DHT22;4610;50.006;7.490;2022-09-09T15:33:31;16.40;99.90
9151;DHT22;4610;50.006;7.490;2022-09-09T15:36:00;16.30;99.90
9151;DHT22;4610;50.006;7.490;2022-09-09T15:38:26;16.40;99.90
9151;DHT22;4610;50.006;7.490;2022-09-09T15:40:54;16.40;99.90
9151;DHT22;4610;50.006;7.490;2022-09-09T15:43:21;16.40;99.90
9151;DHT22;4610;50.006;7.490;2022-09-09T15:45:54;16.40;99.90
9151;DHT22;4610;50.006;7.490;2022-09-09T15:48:30;16.20;99.90
9151;DHT22;4610;50.006;7.490;2022-09-09T15:51:03;16.20;99.90
9151;DHT22;4610;50.006;7.490;2022-09-09T15:53:30;16.20;99.90
9151;DHT22;4610;50.006;7.490;2022-09-09T15:55:57;16.20;99.90
9151;DHT22;4610;50.006;7.490;2022-09-09T15:58:25;16.10;99.90
9151;DHT22;4610;50.006;7.490;2022-09-09T16:00:51;16.10;99.90
9151;DHT22;4610;50.006;7.490;2022-09-09T16:03:18;16.00;99.90
9151;DHT22;4610;50.006;7.490;2022-09-09T16:05:45;16.00;99.90
9151;DHT22;4610;50.006;7.490;2022-09-09T16:08:18;17.00;99.90
9151;DHT22;4610;50.006;7.490;2022-09-09T16:10:45;17.10;99.90
9151;DHT22;4610;50.006;7.490;2022-09-09T16:13:12;17.60;99.90
9151;DHT22;4610;50.006;7.490;2022-09-09T16:15:39;17.80;99.90
9151;DHT22;4610;50.006;7.490;2022-09-09T16:18:06;17.30;99.90
9151;DHT22;4610;50.006;7.490;2022-09-09T16:20:32;17.30;99.90
9151;DHT22;4610;50.006;7.490;2022-09-09T16:22:59;16.90;99.90
9151;DHT22;4610;50.006;7.490;2022-09-09T16:25:28;16.70;99.90
9151;DHT22;4610;50.006;7.490;2022-09-09T16:27:55;16.60;99.90